Мир виртуальной авиации

Полеты на авиасимуляторах
...

Аэропорт URKA

  METAR И TAF ИНФОРМАЦИЯ
METAR FOR URKA
ADDS - METARS form results

(1142 UTC 07 July 2022)
Data provider http://aviationweather.gov/metar/data/
 
METAR text: URKA 071130Z 25003MPS 210V300 CAVOK 31/17 Q1009 R22/010070 NOSIG RMK QFE752/1003
Conditions at: URKA (ANAPA/VITIAZEVO , RU) observed 1130 UTC 07 July 2022
Temperature: 31.0°C (88°F)
Dewpoint: 17.0°C (63°F) [RH = 43%]
Pressure (altimeter): 29.79 inches Hg (1009.0 mb)
Winds: from the WSW (250 degrees) at 7 MPH (6 knots; 3.1 m/s)
Visibility: 6 or more miles (10+ km)
Ceiling: ceiling and visibility are OK
Clouds: unknown
Weather: no significant weather observed at this time

METAR text: URKA 071100Z 08003MPS 020V190 CAVOK 31/17 Q1009 R22/010070 NOSIG RMK QFE752/1003
Conditions at: URKA (ANAPA/VITIAZEVO , RU) observed 1100 UTC 07 July 2022
Temperature: 31.0°C (88°F)
Dewpoint: 17.0°C (63°F) [RH = 43%]
Pressure (altimeter): 29.79 inches Hg (1009.0 mb)
Winds: from the E (80 degrees) at 7 MPH (6 knots; 3.1 m/s)
Visibility: 6 or more miles (10+ km)
Ceiling: ceiling and visibility are OK
Clouds: unknown
Weather: no significant weather observed at this time

Forecast for: URKA (ANAPA/VITIAZEVO , RU)
Text: TAF URKA 071044Z 0712/0812 25003G08MPS CAVOK
Forecast period: 1200 to 2000 UTC 07 July 2022
Forecast type: FROM: standard forecast or significant change
Winds: from the WSW (250 degrees) at 7 MPH (6 knots; 3.1 m/s)
gusting to 18 MPH (16 knots; 8.2 m/s)
Visibility: 6 or more miles (10+ km)
Ceiling: unknown
Clouds: missing
Weather: NSW  (no significant weather)
Text: TEMPO 0712/0720 32003G08MPS
Forecast period: 1200 to 2000 UTC 07 July 2022
Forecast type: TEMPORARY: The following changes expected for less than half the time period
Winds: from the NW (320 degrees) at 7 MPH (6 knots; 3.1 m/s)
gusting to 18 MPH (16 knots; 8.2 m/s)
Visibility: missing
Ceiling: unknown
Clouds: missing
Weather: no significant weather forecast for this period
Text: BECMG 0720/0722 06003G08MPS
Forecast period: 2000 UTC 07 July 2022 to 1200 UTC 08 July 2022
Forecast type: BECOMING: Conditions expected to become as follows by 2200 UTC 07 July 2022
Winds: from the ENE (60 degrees) at 7 MPH (6 knots; 3.1 m/s)
gusting to 18 MPH (16 knots; 8.2 m/s)
Visibility: 6 or more miles (10+ km)
Ceiling: unknown
Clouds: missing
Weather: NSW  (no significant weather)

  КАРТА АЭРОПОРТ
  ИНФОРМАЦИЯ О ВПП
ВПП 04 Длина ВПП 8202 ft Ширина ВПП 138 ft
Высота ВПП 137 ft Порог смещения ВПП 0 ft Курс ВПП 42
ВПП 22 Длина ВПП 8202 ft Ширина ВПП 138 ft
Высота ВПП 174 ft Порог смещения ВПП 0 ft Курс ВПП 222
  ЧАСТОТА АЭРОПОРТА
Тип APP Название ANAPA APP Частота 118.7 MHZ
Тип TWR Название ANAPA KRUG Частота 119.8 MHZ
  НАВИГАЦИОННЫЕ СРЕДСТВА AIDS
Тип NDB Название Anapa Частота 443 KHZ
Тип NDB Название Anapa Частота 443 KHZ